x

Cape San Martin - 55nm West Nw Of Morro Bay, Ca (46028) Wave Buoy

9:50am - Tue 22nd Jul 2014 All times are PDT. -7 hours from GMT.

  • Sig Wave height 3.3ft
  • Swell Direction
  • Peak Period 10s
  • Average Period 9s
  • Wind
    2mph
  • Sea Temp 65°f
  • Air Temp 65°f
  • Sea Pressure 1018.9mb
  • Cape San Martin - 55nm West Nw Of Morro Bay, Ca
  • Cape San Martin - 55nm West Nw Of Morro Bay, Ca

More Historic Weather Station data

Upgrade to MSW Pro to gain access to the past 30 days of data for over 8000 Wavebouys and Weather Stations around the globe.

Join Pro

Comparision Forecast

View Surf forecast
   
Tue 07/22 9:50am 3.5ft 10s 9s 2
mph
1018.9mb 65f 65f
8:50am 3.5ft 11s 8s 2 4 mph 1018.7mb 64f 64f
7:50am 3.5ft 11s 8s 2 4 mph 1018.2mb 64f 64f
6:50am 3.5ft 10s 9s 2
mph
1017.7mb 64f 64f
5:50am 3.5ft 9s 8s 4
mph
1017.6mb 64f 63f
4:50am 3.5ft 11s 8s 2
mph
1017.3mb 64f 63f
3:50am 3.5ft 11s 8s 4
mph
1017.1mb 64f 63f
2:50am 3.5ft 11s 9s 2 4 mph 1017.4mb 64f 63f
1:50am 3.5ft 11s 8s 2 4 mph 1017.3mb 63f 63f
12:50am 3.5ft 11s 9s 2 4 mph 1017.3mb 64f 64f
Mon 07/21 11:50pm 3.5ft 11s 9s 2
mph
1017.4mb 64f 64f
10:50pm 3.5ft 11s 9s 2
mph
1017.4mb 64f 63f
9:50pm 3.5ft 11s 9s 2
mph
1017mb 64f 63f
8:50pm 3.5ft 10s 8s 4
mph
1016.6mb 64f 64f
7:50pm 3.5ft 11s 8s 7 9 mph 1016.6mb 65f 65f
6:50pm  -   -   -  7 9 mph 1016.7mb 65f 65f
5:50pm 3.5ft 12s 8s 2 4 mph 1016.9mb 64f 66f
4:50pm 4ft 12s 8s 2 4 mph 1017.4mb 64f 66f
3:50pm 3.5ft 8s 8s  -  2 mph 1018mb 65f 65f
2:50pm 3.5ft 8s 8s  -  2 mph 1018.3mb 65f 66f
1:50pm 3.5ft 12s 8s 2
mph
1018.8mb 65f 65f
12:50pm 3.5ft 12s 8s 4 7 mph 1018.8mb 65f 64f
11:50am 3.5ft 12s 8s 2 4 mph 1018.4mb 65f 65f
10:50am 3ft 12s 8s 4 7 mph 1018mb 64f 64f
9:50am 3ft 12s 8s 7
mph
1018.1mb 65f 63f
8:50am 2.5ft 13s 8s 7 9 mph 1017.6mb 65f 63f
7:50am 3ft 12s 8s 2 4 mph 1016.7mb 65f 63f
6:50am 3ft 8s 8s 4 7 mph 1016.2mb 65f 63f
5:50am 3ft 8s 8s 7 9 mph 1015.9mb 65f 63f
4:50am 3ft 13s 8s 4 7 mph 1015.6mb 65f 64f
3:50am 3ft 7s 7s 7
mph
1015.5mb 65f 64f
2:50am 3ft 8s 7s 4
mph
1015.6mb 65f 64f
1:50am 3.5ft 8s 7s 4 7 mph 1015.7mb 65f 64f
12:50am 3.5ft 14s 8s 7
mph
1015.7mb 65f 65f
Sun 07/20 11:50pm 3ft 8s 7s 2 4 mph 1015.8mb 66f 65f
10:50pm 3.5ft 8s 7s  -  2 mph 1015.9mb 65f 65f
9:50pm 3.5ft 8s 8s  -  2 mph 1015.7mb 66f 65f
8:50pm 3.5ft 8s 8s 2
mph
1015.2mb 66f 65f
7:50pm 3.5ft 8s 8s  -  2 mph 1014.8mb 66f 66f
6:50pm 3.5ft 8s 8s  -  2 mph 1014.9mb 66f 66f
5:50pm 3ft 8s 7s 4 7 mph 1014.9mb 66f 66f
4:50pm 3.5ft 8s 8s 4 7 mph 1015.1mb 67f 66f
3:50pm 3.5ft 8s 8s 7 9 mph 1015.2mb 66f 65f
2:50pm 3.5ft 14s 8s 7 9 mph 1015.6mb 66f 65f
1:50pm 3.5ft 9s 8s 7 9 mph 1015.8mb 66f 65f
12:50pm 3.5ft 8s 8s 2 4 mph 1016mb 65f 65f
11:50am 3.5ft 9s 8s  -  2 mph 1016.1mb 65f 64f
10:50am 4ft 9s 8s 7 9 mph 1015.9mb 65f 64f
9:50am 4.5ft 8s 8s 7 9 mph 1015.6mb 65f 64f
8:50am 4.5ft 9s 8s 2 4 mph 1015.4mb 63f 64f
7:50am 4ft 9s 8s 2 4 mph 1015mb 65f 64f
6:50am 3.5ft 8s 8s  -  2 mph 1014.4mb 65f 64f
5:50am 4ft 9s 8s  -  2 mph 1014mb 64f 64f
4:50am 4.5ft 9s 8s  -  mph 1013.5mb 64f 63f
3:50am 4.5ft 8s 8s  -  2 mph 1013.3mb 64f 64f
2:50am 4.5ft 9s 8s  -  mph 1013.7mb 64f 64f
1:50am 4.5ft 9s 8s 2
mph
1013.9mb 64f 63f
12:50am 4ft 9s 8s  -  2 mph 1013.9mb 64f 64f
Sat 07/19 11:50pm 4.5ft 9s 8s  -  2 mph 1014.2mb 64f 64f
10:50pm 4.5ft 8s 8s  -  2 mph 1014.3mb 64f 64f
9:50pm  -   -   -  2 4 mph 1014.1mb 64f 64f
8:50pm 4ft 8s 8s 2 4 mph 1014.3mb 65f 64f
7:50pm 4.5ft 8s 8s 4 7 mph 1013.8mb 65f 64f
6:50pm 4.5ft 9s 8s  -  2 mph 1013.9mb 66f 64f
5:50pm 4.5ft 8s 8s  -  2 mph 1014.1mb 67f 65f
4:50pm 4.5ft 9s 8s 2 4 mph 1014.3mb 68f 65f
3:50pm 4.5ft 9s 8s 4 7 mph 1014.6mb 67f 64f
2:50pm 4.5ft 9s 8s 7 9 mph 1015mb 66f 64f
1:50pm 4.5ft 9s 8s 7 11 mph 1015.3mb 66f 64f
12:50pm 4.5ft 9s 8s 7
mph
1015.5mb 65f 63f
11:50am 4.5ft 10s 8s 7 9 mph 1015.5mb 65f 63f
10:50am 4.5ft 9s 8s 4 7 mph 1015.2mb 65f 63f
9:50am 4.5ft 8s 8s 4
mph
1015mb 65f 63f
8:50am 4.5ft 9s 8s 2 4 mph 1014.9mb 65f 63f
7:50am 5ft 9s 8s 2 4 mph 1014.5mb 64f 63f
6:50am 5ft 8s 8s  -  2 mph 1014.3mb 64f 63f
5:50am 5ft 9s 8s  -  2 mph 1013.9mb 64f 63f
4:50am 4ft 9s 8s 2 4 mph 1013.6mb 64f 63f
3:50am 4.5ft 9s 8s 2 4 mph 1013.7mb 64f 63f
2:50am 4.5ft 9s 8s  -  2 mph 1013.8mb 65f 63f
1:50am 4.5ft 8s 8s 4 7 mph 1014.3mb 65f 63f
12:50am 4.5ft 9s 8s 2 7 mph 1014.8mb 65f 63f
Fri 07/18 11:50pm 4ft 9s 8s  -  2 mph 1015.2mb 65f 63f
10:50pm 4.5ft 9s 8s  -  2 mph 1015.3mb 64f 63f
9:50pm 4.5ft 8s 8s  -  2 mph 1015.2mb 65f 63f
8:50pm 4.5ft 9s 8s 2 4 mph 1014.9mb 65f 63f
7:50pm 4.5ft 9s 8s 9 11 mph 1014.8mb 65f 64f
6:50pm 4ft 9s 8s 7 9 mph 1014.7mb 66f 64f